Time;durP1;ratioP1;P1;durP2;ratioP2;P2;SDS_P1;SDS_P2;PMS_P1;PMS_P2;Temp;Humidity;BMP_temperature;BMP_pressure;BME280_temperature;BME280_humidity;BME280_pressure;Samples;Min_cycle;Max_cycle;Signal;HPM_P1;HPM_P2
2024/01/16 00:00:14;;;;;;;3.67;1.30;;;;;;;4.39;64.25;100928.41;4948618;29;20048;-67
2024/01/16 00:02:41;;;;;;;3.15;1.33;;;;;;;4.40;64.40;100937.19;4938033;29;20067;-67
2024/01/16 00:05:11;;;;;;;2.65;1.45;;;;;;;4.41;64.27;100930.88;4945698;29;20094;-67
2024/01/16 00:07:41;;;;;;;3.70;1.27;;;;;;;4.40;64.52;100932.72;4945535;29;20048;-67
2024/01/16 00:10:09;;;;;;;2.58;1.42;;;;;;;4.35;64.52;100924.44;4946499;29;20047;-67
2024/01/16 00:12:37;;;;;;;4.28;1.42;;;;;;;4.41;64.08;100922.91;4948692;29;20079;-67
2024/01/16 00:15:06;;;;;;;3.13;1.48;;;;;;;4.38;64.97;100926.75;4946894;29;20054;-67
2024/01/16 00:17:34;;;;;;;4.22;1.42;;;;;;;4.37;64.79;100932.25;4935182;29;20056;-67
2024/01/16 00:20:05;;;;;;;1.45;1.20;;;;;;;4.38;64.76;100932.06;4945733;29;20325;-67
2024/01/16 00:22:34;;;;;;;4.78;1.60;;;;;;;4.38;64.68;100933.91;4944548;29;20131;-68
2024/01/16 00:25:02;;;;;;;3.90;1.48;;;;;;;4.37;65.01;100933.06;4945729;29;20058;-67
2024/01/16 00:27:29;;;;;;;4.97;1.80;;;;;;;4.37;64.41;100930.41;4945944;29;20079;-67
2024/01/16 00:29:57;;;;;;;5.47;1.92;;;;;;;4.37;64.49;100925.09;4941110;29;20071;-67
2024/01/16 00:32:25;;;;;;;3.55;1.65;;;;;;;4.37;64.58;100937.56;4945523;29;20076;-67
2024/01/16 00:34:53;;;;;;;2.88;1.83;;;;;;;4.34;64.33;100937.91;4946365;29;20058;-67
2024/01/16 00:37:21;;;;;;;3.38;1.67;;;;;;;4.34;64.59;100948.56;4943913;29;20048;-67
2024/01/16 00:39:50;;;;;;;3.60;1.60;;;;;;;4.34;65.16;100938.75;4937845;29;20058;-67
2024/01/16 00:42:18;;;;;;;5.28;2.25;;;;;;;4.36;64.38;100930.59;4945637;29;20525;-67
2024/01/16 00:44:46;;;;;;;4.75;1.85;;;;;;;4.35;64.44;100937.75;4946166;29;20060;-67
2024/01/16 00:47:14;;;;;;;4.53;1.67;;;;;;;4.35;64.47;100939.56;4946207;29;20166;-67
2024/01/16 00:49:42;;;;;;;6.68;2.05;;;;;;;4.35;64.69;100934.25;4944703;29;20484;-67
2024/01/16 00:52:11;;;;;;;4.03;1.48;;;;;;;4.36;64.64;100942.06;4946264;29;20714;-67
2024/01/16 00:54:40;;;;;;;3.33;1.60;;;;;;;4.37;64.54;100937.56;4932884;29;20056;-67
2024/01/16 00:57:09;;;;;;;3.55;1.50;;;;;;;4.36;64.69;100935.91;4944825;29;20047;-67
2024/01/16 00:59:37;;;;;;;3.55;1.40;;;;;;;4.33;64.73;100941.59;4938793;29;20066;-67
2024/01/16 01:02:05;;;;;;;3.33;1.60;;;;;;;4.32;64.49;100942.59;4946437;29;20044;-67
2024/01/16 01:04:33;;;;;;;6.07;1.67;;;;;;;4.33;64.80;100947.72;4942197;29;20052;-68
2024/01/16 01:07:01;;;;;;;6.60;1.92;;;;;;;4.34;64.88;100956.53;4946580;29;20058;-67
2024/01/16 01:09:29;;;;;;;4.05;1.25;;;;;;;4.31;64.38;100944.44;4943840;29;20434;-67
2024/01/16 01:11:57;;;;;;;3.28;1.40;;;;;;;4.34;64.58;100941.41;4946065;29;20083;-67
2024/01/16 01:14:26;;;;;;;6.10;1.60;;;;;;;4.35;64.49;100931.59;4944599;29;20052;-67
2024/01/16 01:16:54;;;;;;;3.88;1.80;;;;;;;4.34;64.83;100938.75;4946019;29;20062;-67
2024/01/16 01:19:22;;;;;;;2.80;1.50;;;;;;;4.36;64.95;100943.88;4945250;29;20063;-67
2024/01/16 01:21:50;;;;;;;3.80;1.60;;;;;;;4.38;64.50;100944.53;4939582;29;20069;-67
2024/01/16 01:24:18;;;;;;;6.78;1.30;;;;;;;4.33;64.30;100939.75;4944561;29;20070;-67
2024/01/16 01:26:46;;;;;;;3.72;1.30;;;;;;;4.32;64.63;100951.41;4941917;29;20099;-67
2024/01/16 01:29:14;;;;;;;4.25;1.20;;;;;;;4.30;65.04;100950.75;4942321;29;20103;-67
2024/01/16 01:31:46;;;;;;;5.82;1.80;;;;;;;4.30;64.87;100947.25;4949891;29;20043;-67
2024/01/16 01:34:15;;;;;;;2.78;1.20;;;;;;;4.33;64.63;100945.06;4949518;29;20056;-67
2024/01/16 01:36:44;;;;;;;4.80;1.38;;;;;;;4.34;64.34;100940.59;4949991;29;20477;-67
2024/01/16 01:39:12;;;;;;;4.70;1.45;;;;;;;4.27;64.77;100934.31;4945698;29;20111;-68
2024/01/16 01:41:40;;;;;;;2.40;1.25;;;;;;;4.34;64.30;100948.56;4950065;29;20058;-67
2024/01/16 01:44:15;;;;;;;2.47;1.13;;;;;;;4.33;64.85;100949.56;4957499;29;20082;-68
2024/01/16 01:46:46;;;;;;;3.25;1.02;;;;;;;4.30;64.64;100950.75;4968860;29;20047;-67
2024/01/16 01:49:15;;;;;;;3.15;1.00;;;;;;;4.29;64.92;100951.75;4969173;28;20051;-67
2024/01/16 01:51:43;;;;;;;1.65;1.00;;;;;;;4.28;64.71;100943.97;4969140;29;20051;-67
2024/01/16 01:54:13;;;;;;;2.65;1.15;;;;;;;4.29;65.01;100957.06;4956802;29;20127;-67
2024/01/16 01:56:45;;;;;;;8.63;2.17;;;;;;;4.32;64.43;100951.41;4960170;29;20047;-67
2024/01/16 01:59:14;;;;;;;3.70;1.40;;;;;;;4.31;64.40;100952.41;4967884;29;20051;-67
2024/01/16 02:01:45;;;;;;;4.10;1.17;;;;;;;4.28;64.94;100951.94;4967252;29;20054;-67
2024/01/16 02:04:15;;;;;;;3.47;1.35;;;;;;;4.26;65.21;100946.78;4968376;29;20063;-68
2024/01/16 02:06:44;;;;;;;2.92;1.00;;;;;;;4.28;64.81;100951.94;4968743;29;20066;-67
2024/01/16 02:09:13;;;;;;;2.35;1.20;;;;;;;4.28;65.17;100954.59;4962456;29;20051;-67
2024/01/16 02:11:41;;;;;;;3.38;1.35;;;;;;;4.28;65.01;100952.75;4964179;29;20048;-67
2024/01/16 02:14:09;;;;;;;4.40;1.38;;;;;;;4.29;64.76;100954.41;4966774;29;20082;-67
2024/01/16 02:16:38;;;;;;;2.75;1.02;;;;;;;4.27;65.24;100961.75;4967928;29;20114;-67
2024/01/16 02:19:08;;;;;;;5.65;1.50;;;;;;;4.27;65.06;100964.41;4967585;29;20062;-67
2024/01/16 02:21:39;;;;;;;5.22;1.08;;;;;;;4.25;65.06;100966.41;4968686;29;20047;-67
2024/01/16 02:24:10;;;;;;;3.60;1.73;;;;;;;4.24;64.86;100973.56;4966044;29;20055;-67
2024/01/16 02:26:39;;;;;;;4.63;1.05;;;;;;;4.23;65.25;100963.94;4964576;29;20145;-67
2024/01/16 02:29:07;;;;;;;4.22;1.55;;;;;;;4.22;65.35;100970.25;4963861;29;20082;-67
2024/01/16 02:31:35;;;;;;;1.63;0.93;;;;;;;4.15;65.15;100950.69;4968037;29;20168;-67
2024/01/16 02:34:04;;;;;;;2.42;1.73;;;;;;;4.23;64.98;100974.56;4955684;29;20084;-67
2024/01/16 02:36:33;;;;;;;2.50;1.05;;;;;;;4.21;65.02;100983.75;4959560;29;20051;-67
2024/01/16 02:39:01;;;;;;;3.95;1.27;;;;;;;4.23;64.88;100977.25;4963965;28;20059;-67
2024/01/16 02:41:30;;;;;;;3.17;1.25;;;;;;;4.19;64.70;100978.59;4967791;29;20102;-67
2024/01/16 02:43:58;;;;;;;7.00;1.63;;;;;;;4.21;65.02;100979.25;4952650;29;20094;-67
2024/01/16 02:46:26;;;;;;;3.33;1.02;;;;;;;4.20;64.95;100972.28;4948730;29;20106;-67
2024/01/16 02:48:53;;;;;;;1.52;0.90;;;;;;;4.20;65.46;100972.28;4948658;29;20051;-67
2024/01/16 02:51:21;;;;;;;2.95;1.00;;;;;;;4.18;64.89;100974.28;4948834;29;20058;-67
2024/01/16 02:53:49;;;;;;;4.63;1.27;;;;;;;4.20;65.09;100972.28;4946588;29;20095;-67
2024/01/16 02:56:17;;;;;;;3.58;1.33;;;;;;;4.19;65.58;100970.63;4947810;29;20056;-67
2024/01/16 02:58:46;;;;;;;3.30;1.38;;;;;;;4.19;64.70;100967.97;4947328;29;20048;-67
2024/01/16 03:01:15;;;;;;;2.90;0.98;;;;;;;4.21;65.27;100962.47;4947398;29;20056;-67
2024/01/16 03:03:43;;;;;;;1.33;0.98;;;;;;;4.20;65.20;100971.44;4947059;29;20052;-67
2024/01/16 03:06:11;;;;;;;2.53;1.00;;;;;;;4.21;65.01;100967.78;4948627;29;20083;-67
2024/01/16 03:08:39;;;;;;;5.15;2.10;;;;;;;4.21;65.55;100970.44;4945917;29;20051;-67
2024/01/16 03:11:07;;;;;;;1.73;0.88;;;;;;;4.21;65.67;100959.81;4948258;29;20056;-67
2024/01/16 03:13:35;;;;;;;2.58;0.98;;;;;;;4.20;65.88;100958.16;4947192;29;20099;-67
2024/01/16 03:16:07;;;;;;;3.58;0.93;;;;;;;4.21;65.58;100960.63;4944544;29;20324;-67
2024/01/16 03:18:35;;;;;;;3.40;1.38;;;;;;;4.22;65.16;100961.47;4947873;29;20088;-67
2024/01/16 03:21:04;;;;;;;2.78;1.20;;;;;;;4.21;65.06;100959.81;4945231;29;20048;-67
2024/01/16 03:23:31;;;;;;;4.72;1.50;;;;;;;4.21;65.37;100962.47;4947993;29;20206;-67
2024/01/16 03:25:59;;;;;;;2.22;1.40;;;;;;;4.13;65.31;100958.03;4947487;29;20058;-67
2024/01/16 03:28:27;;;;;;;4.82;1.55;;;;;;;4.18;65.17;100963.63;4946962;29;20043;-67
2024/01/16 03:30:55;;;;;;;2.85;1.90;;;;;;;4.20;65.53;100953.66;4946255;29;20398;-67
2024/01/16 03:33:24;;;;;;;4.18;1.85;;;;;;;4.19;65.65;100952.00;4947373;29;20063;-67
2024/01/16 03:35:52;;;;;;;4.22;2.03;;;;;;;4.19;65.64;100954.66;4945951;29;20063;-67
2024/01/16 03:38:20;;;;;;;7.60;2.45;;;;;;;4.20;65.62;100948.34;4947573;29;20568;-67
2024/01/16 03:40:48;;;;;;;5.60;2.15;;;;;;;4.20;65.75;100947.50;4946442;29;20048;-67
2024/01/16 03:43:16;;;;;;;5.70;2.63;;;;;;;4.21;65.44;100950.00;4947156;28;20059;-67
2024/01/16 03:45:44;;;;;;;7.55;2.45;;;;;;;4.20;65.75;100942.19;4945818;29;20528;-67
2024/01/16 03:48:12;;;;;;;9.40;3.17;;;;;;;4.18;65.16;100942.38;4946171;29;20056;-67
2024/01/16 03:50:43;;;;;;;5.60;2.90;;;;;;;4.17;65.22;100942.53;4947126;29;20052;-67
2024/01/16 03:53:12;;;;;;;4.63;2.85;;;;;;;4.17;65.45;100937.22;4946035;29;20110;-67
2024/01/16 03:55:40;;;;;;;4.13;2.70;;;;;;;4.16;65.61;100936.41;4946551;29;20082;-67
2024/01/16 03:58:08;;;;;;;6.22;2.90;;;;;;;4.17;65.58;100931.91;4946479;29;20047;-67
2024/01/16 04:00:40;;;;;;;5.70;2.60;;;;;;;4.17;64.82;100930.06;4945592;29;20732;-67
2024/01/16 04:03:08;;;;;;;10.75;3.00;;;;;;;4.19;65.53;100927.22;4947611;29;20055;-67
2024/01/16 04:05:36;;;;;;;6.10;3.13;;;;;;;4.18;64.87;100929.06;4942277;29;20055;-67
2024/01/16 04:08:06;;;;;;;9.10;3.50;;;;;;;4.17;65.63;100930.06;4946544;29;20102;-67
2024/01/16 04:10:34;;;;;;;8.68;3.63;;;;;;;4.16;65.14;100924.94;4942209;29;20086;-67
2024/01/16 04:13:02;;;;;;;9.93;3.20;;;;;;;4.14;65.03;100914.47;4939099;29;20056;-67
2024/01/16 04:15:29;;;;;;;8.30;3.20;;;;;;;4.14;65.34;100917.13;4943766;29;20102;-67
2024/01/16 04:17:57;;;;;;;6.55;3.25;;;;;;;4.14;65.17;100913.63;4940960;29;20055;-67
2024/01/16 04:20:25;;;;;;;5.70;2.90;;;;;;;4.13;64.75;100904.84;4946401;29;20118;-67
2024/01/16 04:22:53;;;;;;;5.32;3.55;;;;;;;4.08;65.10;100898.41;4946642;29;20067;-67
2024/01/16 04:25:22;;;;;;;7.72;3.13;;;;;;;4.13;64.82;100904.00;4940661;29;20048;-67
2024/01/16 04:27:50;;;;;;;12.38;3.53;;;;;;;4.13;65.21;100901.34;4938913;29;20055;-67
2024/01/16 04:30:20;;;;;;;8.02;2.85;;;;;;;4.12;64.50;100902.34;4944634;29;20223;-67
2024/01/16 04:32:48;;;;;;;6.43;3.63;;;;;;;4.11;64.68;100901.53;4942383;29;20051;-67
2024/01/16 04:35:16;;;;;;;6.13;2.85;;;;;;;4.09;64.75;100898.22;4946575;29;20062;-67
2024/01/16 04:37:44;;;;;;;8.40;2.88;;;;;;;4.12;65.34;100907.66;4946712;29;20043;-67
2024/01/16 04:40:12;;;;;;;7.00;3.70;;;;;;;4.12;65.01;100910.31;4943302;29;20059;-68
2024/01/16 04:42:42;;;;;;;8.10;3.20;;;;;;;4.11;64.44;100903.34;4945569;29;20054;-67
2024/01/16 04:45:10;;;;;;;10.77;2.78;;;;;;;4.10;64.81;100901.69;4951089;29;20551;-68
2024/01/16 04:47:38;;;;;;;8.77;2.85;;;;;;;4.08;64.71;100901.88;4961508;29;20051;-67
2024/01/16 04:50:07;;;;;;;8.43;2.35;;;;;;;4.09;64.38;100900.03;4965080;29;20122;-67
2024/01/16 04:52:36;;;;;;;9.77;3.53;;;;;;;4.11;64.82;100906.00;4965344;29;20110;-67
2024/01/16 04:55:04;;;;;;;7.00;2.20;;;;;;;4.10;64.52;100902.53;4965349;29;20047;-67
2024/01/16 04:57:32;;;;;;;8.95;3.05;;;;;;;4.08;64.54;100907.19;4964126;29;20054;-67
2024/01/16 05:00:06;;;;;;;7.28;3.25;;;;;;;4.06;64.75;100909.22;4951656;29;20052;-67
2024/01/16 05:02:34;;;;;;;9.77;3.20;;;;;;;4.06;64.53;100909.22;4959460;28;20636;-67
2024/01/16 05:05:02;;;;;;;8.13;3.25;;;;;;;4.06;64.17;100903.88;4965783;29;20146;-67
2024/01/16 05:07:31;;;;;;;9.18;3.45;;;;;;;4.04;64.30;100903.25;4964779;29;20515;-67
2024/01/16 05:09:59;;;;;;;11.77;3.35;;;;;;;4.04;64.43;100905.06;4964119;29;20421;-67
2024/01/16 05:12:27;;;;;;;12.20;3.42;;;;;;;4.04;63.70;100900.59;4964707;29;20169;-67
2024/01/16 05:14:54;;;;;;;10.07;3.05;;;;;;;4.02;64.28;100891.13;4965561;29;20102;-67
2024/01/16 05:17:24;;;;;;;7.95;2.92;;;;;;;4.00;63.50;100888.66;4964601;29;20055;-67
2024/01/16 05:19:52;;;;;;;8.57;3.15;;;;;;;3.99;64.08;100884.34;4966943;28;20073;-67
2024/01/16 05:22:19;;;;;;;9.10;3.47;;;;;;;3.98;64.04;100884.50;4964275;29;20402;-68
2024/01/16 05:24:47;;;;;;;9.30;2.75;;;;;;;4.00;63.96;100890.47;4963457;29;20069;-67
2024/01/16 05:27:15;;;;;;;7.25;2.90;;;;;;;4.00;64.20;100893.13;4961118;29;20059;-67
2024/01/16 05:29:43;;;;;;;7.97;3.08;;;;;;;4.00;63.59;100880.66;4964052;29;20055;-68
2024/01/16 05:32:12;;;;;;;6.20;2.70;;;;;;;3.97;64.00;100880.19;4963873;29;20516;-67
2024/01/16 05:34:41;;;;;;;7.18;3.08;;;;;;;4.00;63.69;100899.28;4964929;29;20404;-67
2024/01/16 05:37:09;;;;;;;8.90;2.88;;;;;;;4.00;64.05;100895.78;4964723;29;20290;-68
2024/01/16 05:39:37;;;;;;;10.95;3.28;;;;;;;3.97;64.07;100885.53;4964029;29;20073;-68
2024/01/16 05:42:06;;;;;;;8.55;3.30;;;;;;;4.00;63.56;100893.13;4964697;29;20058;-67
2024/01/16 05:44:34;;;;;;;6.22;2.53;;;;;;;3.95;63.97;100893.66;4955595;29;20110;-68
2024/01/16 05:47:02;;;;;;;5.78;2.75;;;;;;;3.99;64.22;100902.94;4944247;29;20071;-68
2024/01/16 05:49:30;;;;;;;12.60;3.20;;;;;;;4.00;64.10;100890.47;4945643;29;20406;-68
2024/01/16 05:51:59;;;;;;;9.30;3.05;;;;;;;3.99;63.64;100892.31;4945531;29;20478;-68
2024/01/16 05:54:27;;;;;;;13.70;3.50;;;;;;;3.98;63.24;100895.16;4938739;29;20051;-68
2024/01/16 05:56:54;;;;;;;7.18;2.80;;;;;;;3.96;63.78;100890.00;4945036;29;20521;-68
2024/01/16 05:59:22;;;;;;;9.20;2.78;;;;;;;3.96;64.05;100884.69;4943280;29;20044;-68
2024/01/16 06:01:50;;;;;;;7.68;3.15;;;;;;;3.95;64.30;100882.22;4944456;29;20047;-68
2024/01/16 06:04:19;;;;;;;9.68;3.13;;;;;;;4.04;63.67;100884.63;4945384;29;20070;-67
2024/01/16 06:06:47;;;;;;;5.82;2.63;;;;;;;4.11;63.49;100882.09;4937314;29;20067;-67
2024/01/16 06:09:18;;;;;;;8.57;2.72;;;;;;;4.12;63.22;100884.56;4942345;29;20063;-68
2024/01/16 06:11:47;;;;;;;8.80;3.28;;;;;;;4.13;63.49;100878.25;4944649;29;20087;-67
2024/01/16 06:14:21;;;;;;;5.88;2.55;;;;;;;4.13;62.93;100877.41;4944629;29;20049;-67
2024/01/16 06:16:49;;;;;;;9.95;2.90;;;;;;;4.12;63.51;100881.06;4948756;29;20058;-66
2024/01/16 06:19:17;;;;;;;10.68;3.00;;;;;;;4.09;63.59;100873.47;4947571;29;20052;-67
2024/01/16 06:21:45;;;;;;;11.32;3.45;;;;;;;4.09;63.05;100873.47;4948492;29;20052;-67
2024/01/16 06:24:13;;;;;;;9.10;3.67;;;;;;;4.14;63.08;100871.91;4946950;29;20059;-68
2024/01/16 06:26:43;;;;;;;10.05;3.40;;;;;;;4.25;62.60;100876.81;4944896;29;20060;-66
2024/01/16 06:29:10;;;;;;;12.23;2.72;;;;;;;4.38;61.81;100875.38;4943605;29;20143;-68
2024/01/16 06:31:51;;;;;;;12.18;3.40;;;;;;;4.45;61.45;100860.31;4939084;29;20079;-71
2024/01/16 06:34:19;;;;;;;8.18;2.67;;;;;;;4.70;60.78;100867.06;4947608;29;20059;-66
2024/01/16 06:36:47;;;;;;;6.25;2.33;;;;;;;4.87;60.63;100873.03;4947326;29;20067;-68
2024/01/16 06:39:15;;;;;;;7.25;2.85;;;;;;;5.03;59.95;100867.50;4948662;29;20056;-66
2024/01/16 06:41:45;;;;;;;7.07;2.70;;;;;;;5.18;59.52;100867.47;4948192;29;20071;-65
2024/01/16 06:44:13;;;;;;;6.38;2.90;;;;;;;5.30;59.00;100865.97;4957726;29;20150;-65
2024/01/16 06:46:40;;;;;;;8.00;2.67;;;;;;;5.42;58.45;100864.47;4618077;28;9999935;-65
2024/01/16 06:49:08;;;;;;;6.00;2.70;;;;;;;5.52;58.10;100870.31;4963347;29;20541;-68
2024/01/16 06:51:36;;;;;;;7.32;2.60;;;;;;;5.48;58.39;100866.38;4963884;29;20434;-68
2024/01/16 06:54:04;;;;;;;5.90;2.40;;;;;;;5.35;58.55;100863.56;4963756;29;20478;-67
2024/01/16 06:56:33;;;;;;;7.68;2.30;;;;;;;5.19;58.96;100872.63;4964313;29;20047;-68
2024/01/16 06:59:02;;;;;;;16.38;3.50;;;;;;;5.03;59.41;100882.66;4950424;29;20051;-68
2024/01/16 07:01:30;;;;;;;10.88;3.63;;;;;;;4.90;59.82;100883.31;4955768;29;20068;-70
2024/01/16 07:03:58;;;;;;;5.30;2.72;;;;;;;4.79;60.42;100886.41;4963895;29;20043;-73
2024/01/16 07:06:26;;;;;;;6.10;2.70;;;;;;;4.70;60.54;100891.00;4958920;29;20503;-65
2024/01/16 07:08:54;;;;;;;14.45;2.70;;;;;;;4.65;60.57;100893.38;4961250;29;20162;-66
2024/01/16 07:11:22;;;;;;;7.03;3.22;;;;;;;4.59;60.98;100894.13;4953746;29;20058;-67
2024/01/16 07:13:52;;;;;;;6.35;2.45;;;;;;;4.54;60.87;100897.31;4966067;29;20070;-68
2024/01/16 07:16:21;;;;;;;10.13;3.15;;;;;;;4.49;61.40;100898.88;4964210;29;20062;-68
2024/01/16 07:18:49;;;;;;;10.60;3.50;;;;;;;4.36;61.41;100898.66;4963870;29;20052;-70
2024/01/16 07:21:17;;;;;;;6.55;3.03;;;;;;;4.30;61.27;100900.22;4959279;29;20062;-70
2024/01/16 07:23:45;;;;;;;10.40;2.85;;;;;;;4.28;60.97;100898.72;4966826;29;20168;-70
2024/01/16 07:26:13;;;;;;;9.63;2.65;;;;;;;4.27;61.09;100905.88;4968006;28;20051;-70
2024/01/16 07:28:41;;;;;;;9.45;3.05;;;;;;;4.26;61.71;100898.91;4962045;29;20051;-70
2024/01/16 07:31:09;;;;;;;7.05;2.80;;;;;;;4.25;61.83;100902.56;4966557;29;20401;-69
2024/01/16 07:33:38;;;;;;;7.28;3.05;;;;;;;4.26;61.52;100909.56;4967980;29;20095;-67
2024/01/16 07:36:07;;;;;;;7.10;2.63;;;;;;;4.25;61.22;100906.06;4969738;28;20047;-69
2024/01/16 07:38:36;;;;;;;10.20;3.63;;;;;;;4.21;61.30;100901.28;4967029;29;20070;-69
2024/01/16 07:41:05;;;;;;;10.90;3.17;;;;;;;4.18;61.63;100893.66;4967009;29;20153;-69
2024/01/16 07:43:34;;;;;;;8.93;3.38;;;;;;;4.17;61.60;100899.97;4963933;29;20082;-69
2024/01/16 07:46:02;;;;;;;6.57;2.97;;;;;;;4.18;61.58;100904.28;4966261;29;20062;-70
2024/01/16 07:48:30;;;;;;;6.68;2.97;;;;;;;4.16;62.11;100896.50;4953255;29;20512;-69
2024/01/16 07:50:59;;;;;;;7.97;3.33;;;;;;;4.17;61.39;100907.97;4969741;28;20067;-69
2024/01/16 07:53:28;;;;;;;13.90;4.15;;;;;;;4.14;61.56;100910.97;4968672;28;20043;-69
2024/01/16 07:55:56;;;;;;;6.88;3.08;;;;;;;4.11;61.58;100921.97;4964847;28;20054;-69
2024/01/16 07:58:23;;;;;;;7.00;3.30;;;;;;;4.11;61.76;100922.81;4970895;28;20065;-70
2024/01/16 08:00:51;;;;;;;11.55;3.70;;;;;;;4.09;61.98;100919.50;4977624;28;20059;-70
2024/01/16 08:03:19;;;;;;;9.27;3.00;;;;;;;4.11;61.71;100929.94;4966052;28;20047;-70
2024/01/16 08:05:47;;;;;;;7.18;3.85;;;;;;;4.08;62.05;100932.97;4975203;28;20489;-69
2024/01/16 08:08:16;;;;;;;9.60;3.10;;;;;;;4.08;61.55;100932.97;4973390;28;21207;-70
2024/01/16 08:10:44;;;;;;;4.97;2.65;;;;;;;4.06;62.53;100929.66;4967950;28;20051;-70
2024/01/16 08:13:12;;;;;;;12.23;4.03;;;;;;;4.05;62.03;100925.34;4977807;28;20046;-69
2024/01/16 08:15:40;;;;;;;13.48;3.65;;;;;;;4.04;62.15;100921.84;4976972;28;20059;-70
2024/01/16 08:18:08;;;;;;;9.95;4.40;;;;;;;4.05;62.11;100925.34;4966421;28;20051;-69
2024/01/16 08:20:36;;;;;;;11.30;4.43;;;;;;;4.04;62.40;100926.34;4968575;28;20166;-69
2024/01/16 08:23:04;;;;;;;9.15;3.90;;;;;;;4.04;62.22;100916.53;4967639;28;20074;-68
2024/01/16 08:25:33;;;;;;;11.15;3.80;;;;;;;4.03;61.83;100922.03;4967524;28;20195;-68
2024/01/16 08:28:01;;;;;;;9.13;3.25;;;;;;;4.02;62.30;100923.88;4972006;28;20083;-69
2024/01/16 08:30:29;;;;;;;6.88;3.15;;;;;;;4.06;61.71;100933.16;4971647;28;20051;-68
2024/01/16 08:32:57;;;;;;;6.13;3.55;;;;;;;4.07;62.01;100940.13;4974491;28;20490;-69
2024/01/16 08:35:25;;;;;;;8.25;4.30;;;;;;;4.10;61.63;100938.94;4974293;28;20189;-69
2024/01/16 08:37:53;;;;;;;7.43;3.42;;;;;;;4.14;62.16;100943.72;4976503;28;20071;-68
2024/01/16 08:40:21;;;;;;;7.95;4.00;;;;;;;4.17;61.92;100945.19;4967992;28;20106;-69
2024/01/16 08:42:54;;;;;;;10.45;3.45;;;;;;;4.18;61.29;100939.69;4976425;28;20047;-66
2024/01/16 08:45:25;;;;;;;10.65;3.70;;;;;;;4.21;61.84;100947.31;4950809;29;20043;-69
2024/01/16 08:47:53;;;;;;;11.75;3.30;;;;;;;4.20;61.76;100942.19;4951441;29;20114;-68
2024/01/16 08:50:22;;;;;;;8.45;3.47;;;;;;;4.20;61.59;100936.88;4961559;29;20303;-68
2024/01/16 08:52:50;;;;;;;11.35;4.25;;;;;;;4.21;61.21;100935.84;4949549;29;20111;-69
2024/01/16 08:55:18;;;;;;;9.02;3.63;;;;;;;4.20;61.14;100942.19;4953403;29;20047;-68
2024/01/16 08:57:45;;;;;;;6.88;2.92;;;;;;;4.20;61.80;100937.69;4951835;29;20055;-69
2024/01/16 09:00:16;;;;;;;10.68;3.08;;;;;;;4.19;61.04;100933.38;4950595;29;20052;-69
2024/01/16 09:02:44;;;;;;;9.07;3.78;;;;;;;4.20;61.22;100931.53;4952356;29;20053;-69
2024/01/16 09:05:13;;;;;;;10.48;3.65;;;;;;;4.32;60.93;100927.47;4955170;29;20055;-69
2024/01/16 09:07:41;;;;;;;9.93;3.17;;;;;;;4.51;60.70;100929.63;4955256;29;20047;-67
2024/01/16 09:10:09;;;;;;;10.93;3.58;;;;;;;4.73;59.46;100929.75;4949717;29;20047;-67
2024/01/16 09:12:37;;;;;;;9.30;4.50;;;;;;;4.90;58.72;100934.72;4959529;29;20087;-68
2024/01/16 09:15:06;;;;;;;9.38;3.50;;;;;;;5.10;58.43;100935.00;4955424;29;20489;-67
2024/01/16 09:17:35;;;;;;;9.73;3.88;;;;;;;5.22;57.80;100932.69;4944424;29;20067;-67
2024/01/16 09:20:04;;;;;;;6.40;3.60;;;;;;;5.37;57.33;100927.34;4954956;29;20099;-67
2024/01/16 09:22:32;;;;;;;8.45;3.42;;;;;;;5.51;57.11;100929.97;4960913;29;20054;-68
2024/01/16 09:25:01;;;;;;;6.53;3.08;;;;;;;5.66;56.85;100921.94;4956978;29;20047;-67
2024/01/16 09:27:29;;;;;;;8.75;3.10;;;;;;;5.80;56.37;100929.06;4956215;29;20090;-67
2024/01/16 09:29:56;;;;;;;10.02;3.72;;;;;;;5.90;55.66;100920.81;4950494;29;20043;-68
2024/01/16 09:32:24;;;;;;;8.52;3.47;;;;;;;5.98;55.78;100918.00;4951703;29;20055;-67
2024/01/16 09:34:54;;;;;;;8.05;4.00;;;;;;;6.04;55.39;100911.91;4948716;29;20086;-67
2024/01/16 09:37:22;;;;;;;7.97;3.67;;;;;;;6.08;55.40;100907.84;4954219;29;20054;-67
2024/01/16 09:39:51;;;;;;;9.13;3.67;;;;;;;6.09;55.51;100909.50;4956450;29;20055;-68
2024/01/16 09:42:20;;;;;;;8.68;3.53;;;;;;;6.14;55.05;100912.44;4957993;29;20106;-67
2024/01/16 09:44:49;;;;;;;8.38;4.18;;;;;;;6.17;55.21;100906.72;4953217;28;20054;-68
2024/01/16 09:47:18;;;;;;;8.38;3.22;;;;;;;6.17;55.16;100905.88;4950910;29;20056;-68
2024/01/16 09:49:47;;;;;;;9.60;3.58;;;;;;;6.11;55.46;100901.31;4957171;28;20055;-68
2024/01/16 09:52:17;;;;;;;8.00;4.13;;;;;;;6.15;55.10;100902.59;4950512;29;20118;-68
2024/01/16 09:54:44;;;;;;;9.68;3.38;;;;;;;6.16;54.79;100912.22;4948027;29;20043;-68
2024/01/16 09:57:14;;;;;;;9.98;3.65;;;;;;;6.17;54.94;100906.72;4958118;29;20067;-68
2024/01/16 09:59:43;;;;;;;9.00;3.13;;;;;;;6.15;55.38;100903.41;4956664;29;20129;-68
2024/01/16 10:02:14;;;;;;;7.95;3.53;;;;;;;6.01;55.54;100909.63;4952975;29;20513;-68
2024/01/16 10:04:43;;;;;;;10.65;4.47;;;;;;;5.84;56.00;100892.19;4944104;29;20068;-68
2024/01/16 10:07:13;;;;;;;10.98;3.88;;;;;;;5.66;56.50;100891.78;4950162;29;20489;-67
2024/01/16 10:09:42;;;;;;;7.60;3.85;;;;;;;5.48;56.92;100894.88;4946635;29;20044;-68
2024/01/16 10:12:10;;;;;;;7.47;4.35;;;;;;;5.22;57.25;100874.06;4947715;29;20104;-65
2024/01/16 10:14:40;;;;;;;6.97;3.40;;;;;;;5.22;57.84;100895.38;4947534;29;20058;-68
2024/01/16 10:17:14;;;;;;;9.13;3.35;;;;;;;5.13;58.09;100897.34;4941605;29;20056;-67
2024/01/16 10:19:49;;;;;;;9.35;3.47;;;;;;;5.08;58.30;100891.75;4944956;29;20103;-68
2024/01/16 10:22:24;;;;;;;12.73;4.13;;;;;;;5.01;58.39;100888.16;4950795;29;20106;-68
2024/01/16 10:25:06;;;;;;;9.15;3.55;;;;;;;4.95;58.68;100891.56;4947934;29;20150;-68
2024/01/16 10:27:34;;;;;;;9.20;3.83;;;;;;;4.90;58.98;100891.28;4946141;29;20204;-68
2024/01/16 10:30:03;;;;;;;9.52;3.83;;;;;;;4.87;58.97;100889.81;4947535;29;20459;-68
2024/01/16 10:32:35;;;;;;;10.40;3.80;;;;;;;4.83;58.58;100877.06;4946414;29;20162;-68
2024/01/16 10:35:05;;;;;;;7.53;3.92;;;;;;;4.77;59.51;100870.63;4945288;29;20044;-68
2024/01/16 10:37:43;;;;;;;10.25;4.00;;;;;;;4.74;59.37;100873.66;4946955;29;20055;-67
2024/01/16 10:40:16;;;;;;;9.85;3.80;;;;;;;4.70;59.48;100864.38;4938913;29;20066;-68
2024/01/16 10:42:44;;;;;;;7.97;3.55;;;;;;;4.69;59.60;100865.41;4948095;29;20079;-67
2024/01/16 10:45:18;;;;;;;9.00;3.70;;;;;;;4.67;59.22;100858.59;4951736;28;20115;-69
2024/01/16 10:47:47;;;;;;;8.45;3.80;;;;;;;4.66;59.39;100864.94;4947982;29;20047;-68
2024/01/16 10:50:15;;;;;;;9.30;4.03;;;;;;;4.61;59.45;100870.81;4953792;29;20060;-68
2024/01/16 10:52:48;;;;;;;7.35;3.53;;;;;;;4.59;59.64;100878.16;4955464;29;20117;-69
2024/01/16 10:55:23;;;;;;;6.95;3.55;;;;;;;4.57;59.31;100877.50;4954556;29;20044;-69
2024/01/16 10:57:51;;;;;;;5.93;3.15;;;;;;;4.56;59.64;100868.69;4956214;29;20055;-72
2024/01/16 11:00:21;;;;;;;9.80;3.75;;;;;;;4.56;60.20;100855.38;4947855;29;20048;-69
2024/01/16 11:02:52;;;;;;;13.15;3.33;;;;;;;4.54;59.53;100860.06;4961588;29;20118;-66
2024/01/16 11:05:22;;;;;;;9.57;4.00;;;;;;;4.54;59.53;100857.41;4948639;29;20063;-70
2024/01/16 11:07:56;;;;;;;5.35;3.72;;;;;;;4.52;59.20;100854.09;4954403;29;20052;-67
2024/01/16 11:10:28;;;;;;;9.85;3.72;;;;;;;4.50;59.75;100852.63;4953101;29;20498;-67
2024/01/16 11:12:56;;;;;;;11.27;4.43;;;;;;;4.50;59.40;100860.59;4960856;29;20054;-65
2024/01/16 11:15:25;;;;;;;7.97;3.65;;;;;;;4.47;59.82;100853.81;4958769;29;20584;-64
2024/01/16 11:17:55;;;;;;;9.80;4.32;;;;;;;4.48;59.91;100844.81;4956184;29;20043;-65
2024/01/16 11:20:25;;;;;;;12.85;3.70;;;;;;;4.48;59.87;100846.66;4944542;29;20079;-65
2024/01/16 11:23:14;;;;;;;10.32;4.57;;;;;;;4.52;59.34;100840.78;4951289;29;20142;-65
2024/01/16 11:25:43;;;;;;;7.15;3.90;;;;;;;4.49;59.82;100849.13;4953877;29;20066;-63
2024/01/16 11:28:13;;;;;;;12.07;4.70;;;;;;;4.51;58.99;100849.78;4946311;29;20123;-64
2024/01/16 11:30:42;;;;;;;10.48;3.40;;;;;;;4.44;59.46;100840.88;4947263;29;20597;-63
2024/01/16 11:33:43;;;;;;;10.05;3.88;;;;;;;4.50;59.32;100849.97;4949386;29;20052;-63
2024/01/16 11:36:54;;;;;;;7.25;3.55;;;;;;;4.48;59.24;100858.13;4947829;29;20058;-64
2024/01/16 11:39:25;;;;;;;7.13;3.50;;;;;;;4.45;59.18;100857.66;4935467;29;20145;-64